Have a Safe July 4th! 

Flight Track Log - Related Links

Times and Time Zones

All times are in EDT time to prevent confusion due to time zone crossing. See the ACA765 flight status page for this flight to view local times or setup timezone preferences in your user account.

Time Position Orientation Groundspeed Altitude Reporting Facility
EDT Latitude Longitude Course Direction KTS MPH feet Rate Location/Type
Wed 09:24:31 AM 40.7167 -74.1500 300° West 167 192 2,300  Level New York TRACON
Wed 09:25:31 AM 40.7667 -74.1500 360° North 240 276 5,000 1,842 Climbing New York TRACON
Wed 09:27:00 AM 41.5046 -74.5781 298° West  Level FlightAware Approximate
Wed 09:27:53 AM 40.9022 -74.3181 317° Northwest 315 362 8,500  Level New York Center
Wed 09:28:00 AM 41.6088 -74.8573 301° West  Level FlightAware Approximate
Wed 09:28:54 AM 40.9947 -74.3558 343° North 310 357 11,100  Level New York Center
Wed 09:29:00 AM 41.7326 -75.1261 300° West  Level FlightAware Approximate
Wed 09:29:54 AM 41.0833 -74.3853 346° North 342 394 13,700  Level New York Center
Wed 09:30:55 AM 41.1833 -74.4514 334° Northwest 360 414 16,500 2,380 Climbing New York Center
Wed 09:31:55 AM 41.2428 -74.5511 308° West 366 421 18,500 2,136 Climbing New York Center
Wed 09:32:53 AM 41.3097 -74.6683 307° West 382 440 20,700 2,085 Climbing New York Center
Wed 09:33:53 AM 41.3828 -74.7914 308° West 405 466 22,600 1,934 Climbing New York Center
Wed 09:34:54 AM 41.4556 -74.9147 308° West 420 483 24,600 1,300 Climbing New York Center
Wed 09:35:53 AM 41.5300 -75.0414 308° West 431 496 25,200 950 Climbing New York Center
Wed 09:36:54 AM 41.6067 -75.1708 308° West 431 496 26,500 1,388 Climbing New York Center
Wed 09:37:54 AM 41.6806 -75.3036 307° West 436 502 28,000 744 Climbing New York Center
Wed 09:38:55 AM 41.7589 -75.4342 309° West 441 507 28,000  Level New York Center
Wed 09:39:55 AM 41.8347 -75.5731 306° West 454 522 28,000  Level New York Center
Wed 09:40:53 AM 41.9122 -75.7094 307° West 459 528 28,000  Level New York Center
Wed 09:41:55 AM 41.9897 -75.8464 307° West 459 528 28,000  Level New York Center
Wed 09:43:45 AM 42.1444 -76.1186 308° West 452 520 28,000  Level Cleveland Center
Wed 09:44:45 AM 42.2003 -76.2744 296° West 457 526 28,000  Level Cleveland Center
Wed 09:45:45 AM 42.2522 -76.4367 293° West 464 534 28,000  Level Cleveland Center
Wed 09:46:45 AM 42.3017 -76.5964 293° West 470 541 28,000  Level Cleveland Center
Wed 09:47:45 AM 42.3594 -76.7669 295° West 475 547 28,000  Level Cleveland Center
Wed 09:48:45 AM 42.4064 -76.9272 292° West 475 547 28,000  Level Cleveland Center
Wed 09:49:45 AM 42.4594 -77.0931 293° West 475 547 28,000  Level Cleveland Center
Wed 09:50:45 AM 42.5100 -77.2536 293° West 470 541 28,000  Level Cleveland Center
Wed 09:51:45 AM 42.5606 -77.4175 293° West 465 535 28,000  Level Cleveland Center
Wed 09:52:45 AM 42.6039 -77.5592 293° West 465 535 28,000  Level Cleveland Center
Wed 09:53:45 AM 42.6539 -77.7206 293° West 465 535 28,000  Level Cleveland Center
Wed 09:54:45 AM 42.7083 -77.9044 292° West 477 549 28,000  Level Cleveland Center
Wed 09:55:45 AM 42.7558 -78.0636 292° West 471 542 28,000  Level Cleveland Center
Wed 09:56:45 AM 42.8031 -78.2258 292° West 462 532 28,000 -400 Level Cleveland Center
Wed 09:57:45 AM 42.8497 -78.3714 294° West 467 537 27,200 -1,350 Descending Cleveland Center
Wed 09:58:45 AM 42.9011 -78.5567 291° West 467 537 25,300 -2,100 Descending Cleveland Center
Wed 09:59:45 AM 42.9578 -78.7025 298° West 457 526 23,000 -2,261 Descending Cleveland Center
Wed 10:02:04 AM 43.1167 -78.9667 310° West 410 472 17,800 -2,171 Descending Toronto Center
Wed 10:03:04 AM 43.1667 -79.0833 300° West 390 449 15,800 -2,050 Descending Toronto Center
Wed 10:04:04 AM 43.2333 -79.2167 304° West 380 437 13,700 -1,700 Descending Toronto Center
Wed 10:05:04 AM 43.2833 -79.3167 305° West 350 403 12,400 -1,050 Descending Toronto Center
Wed 10:06:04 AM 43.3667 -79.3500 344° North 320 368 11,600 -1,200 Descending Toronto Center
Wed 10:07:04 AM 43.4500 -79.4000 336° Northwest 310 357 10,000 -1,500 Descending Toronto Center
Wed 10:08:04 AM 43.5167 -79.4500 331° Northwest 300 345 8,600 -1,150 Descending Toronto Center
Wed 10:09:04 AM 43.5667 -79.5167 316° Northwest 260 299 7,700 -1,150 Descending Toronto Center
Wed 10:10:04 AM 43.5333 -79.6167 245° Southwest 260 299 6,300 -1,550 Descending Toronto Center
Wed 10:11:04 AM 43.5167 -79.6833 251° West 250 288 4,600 -1,500 Descending Toronto Center
Wed 10:12:04 AM 43.5333 -79.7667 285° West 230 265 3,300 -850 Descending Toronto Center
Wed 10:13:04 AM 43.5833 -79.7667 360° North 200 230 2,900 -650 Descending Toronto Center
Wed 10:14:04 AM 43.6167 -79.7333 36° Northeast 180 207 2,000 -900 Descending Toronto Center

Login

Don't have an account? Register now (free) for customized features, flight alerts, and more!